AirNav   Everest Fuels
 
 1028 users online  

KAPT Marion County Airport-Brown Field
Jasper, Tennessee, USA

GOING TO JASPER?


FAA INFORMATION EFFECTIVE 18 JULY 2019

Location

FAA Identifier: APT
Lat/Long: 35-03-38.4000N / 085-35-07.1000W
35-03.640000N / 085-35.118333W
35.0606667 / -85.5853056
(estimated)
Elevation: 641.2 ft. / 195.4 m (surveyed)
Variation: 02W (1990)
From city: 4 miles SE of JASPER, TN
Time zone: UTC -5 (UTC -6 during Standard Time)
Zip code: 37347

Airport Operations

Airport use: Open to the public
Control tower: no
ARTCC: ATLANTA CENTER
FSS: NASHVILLE FLIGHT SERVICE STATION
NOTAMs facility: BNA (NOTAM-D service available)
Attendance: MON-SAT 0800-1700, ALL SUN 1300-1700
CLSD ON FED HOLS. SVCS NOT AVBL HOLS.
Wind indicator: lighted
Segmented circle: yes
Lights: SS-SR
Beacon: white-green (lighted land airport)
Operates sunset to sunrise.

Airport Communications

CTAF/UNICOM: 122.8
CHATTANOOGA APPROACH: 119.2
CHATTANOOGA DEPARTURE: 119.2
WX ASOS at CHA (19 nm E): 119.85 (423-499-5973)
  • APCH/DEP SVC PRVDD BY ATLANTA ARTCC ON FREQS 132.05/354.025 (CHATTANOOGA RCAG) WHEN CHATTANOOGA APCH CTL CLSD.

Nearby radio navigation aids

VOR radial/distance  VOR name  Freq  Var
GQOr285/22.0CHOO CHOO VORTAC115.8001E

 
NDB name  Hdg/Dist  Freq  Var  ID
DAISY255/21.934102WCQN -.-. --.- -.
FORT PAYNE012/32.742604WFTP ..-. - .--.

Airport Services

Fuel available: 100LL JET-A+
Parking: hangars and tiedowns
Airframe service: NONE
Powerplant service: NONE
Bottled oxygen: NONE
Bulk oxygen: NONE

Runway Information

Runway 4/22

Dimensions: 3498 x 75 ft. / 1066 x 23 m
Surface: asphalt, in good condition
Weight bearing capacity: 
Single wheel: 30.0
Runway edge lights: medium intensity
RUNWAY 4  RUNWAY 22
Latitude: 35-03.413527N35-03.867907N
Longitude: 085-35.334935W085-34.903055W
Elevation: 641.0 ft.640.8 ft.
Traffic pattern: leftright
Runway heading: 040 magnetic, 038 true220 magnetic, 218 true
Markings: nonprecision, in good conditionnonprecision, in good condition
Visual slope indicator: 4-light PAPI on left (3.50 degrees glide path)4-light PAPI on left (3.50 degrees glide path)
Runway end identifier lights: yesyes
Touchdown point: yes, no lightsyes, no lights
Obstructions: 79 ft. tree, 1284 ft. from runway, 327 ft. right of centerline, 13:1 slope to clear110 ft. tree, 1925 ft. from runway, 471 ft. right of centerline, 15:1 slope to clear

Airport Ownership and Management from official FAA records

Ownership: Publicly-owned
Owner: MARION COUNTY
31 COURTHOUSE SQUARE
JASPER, TN 37347
Phone 423-942-2552
Manager: BETH GUDGER
300 AIRPORT RD
JASPER, TN 37347
Phone 423-942-5234

Airport Operational Statistics

Aircraft based on the field: 26
Single engine airplanes: 18
Ultralights: 8
    
Aircraft operations: avg 23/day *
62% local general aviation
36% transient general aviation
2% military
* for 12-month period ending 31 August 2015

Additional Remarks

ULTRALIGHT ACTIVITY ON AND IN VICINITY OF ARPT.
DEER ON & INVOF ARPT.
FOR CD CTC MEMPHIS ARTCC AT 901-368-8453.

Instrument Procedures

NOTE: All procedures below are presented as PDF files. If you need a reader for these files, you should download the free Adobe Reader.

NOT FOR NAVIGATION. Please procure official charts for flight.
FAA instrument procedures published for use from 18 July 2019 at 0901Z to 16 August 2019 at 0900Z.

 
IAPs - Instrument Approach Procedures
RNAV (GPS) RWY 04   download (244KB)
NOTE: Special Take-Off Minimums/Departure Procedures apply   download (126KB)

Other nearby airports with instrument procedures:

KCHA - Lovell Field Airport (19 nm E)
KBGF - Winchester Municipal Airport (25 nm W)
9A5 - Barwick Lafayette Airport (27 nm SE)
4A6 - Scottsboro Municipal Airport-Word Field (30 nm SW)
4A9 - Isbell Field Airport (36 nm S)
 
Loc | Ops | Rwys | IFR | FBO | Links
Com | Nav | Svcs | Stats | Notes
Area around KAPT (Marion County Airport-Brown Field)
 
Road maps at: MapQuest Bing Google
 
Aerial photo
WARNING: Photo may not be current or correct
Aerial photo of KAPT (Marion County Airport-Brown Field)
Photo by Antonio Moré
Photo taken 04-Nov-2007

Do you have a better or more recent aerial photo of Marion County Airport-Brown Field that you would like to share? If so, please send us your photo.

 
Sectional chart

 
Airport distance calculator
Flying to Marion County Airport-Brown Field? Find the distance to fly.

From to KAPT

Sunrise and sunset
Times for 20-Jul-2019
 Local
(UTC-5)
 Zulu
(UTC)
Morning civil twilight05:1510:15
Sunrise05:4410:44
Sunset19:5300:53
Evening civil twilight20:2201:22

Current date and time
Zulu (UTC)  20-Jul-2019 23:33:32
Local (UTC-5)  20-Jul-2019 18:33:32
 
METAR
KCHA 
19nm E 
202253Z 30005KT 10SM FEW015 SCT035 BKN120 BKN150 BKN200 28/23 A2999 RMK AO2 SLP147 T02830233
KBGF 
25nm W 
202315Z AUTO 27003KT 10SM SCT018 SCT030 BKN050 26/23 A3000 RMK A01
K9A5 
27nm SE 
202315Z AUTO 21003KT 10SM SCT100 28/23 A3001 RMK AO2 T02750228
K4A6 
30nm SW 
202315Z AUTO 23005G10KT 10SM VCTS CLR 30/25 A3000 RMK AO2 LTG DSNT W-NE
KDNN 
31nm SE 
202315Z AUTO 00000KT 10SM CLR 28/26 A3001 RMK AO2 LTG DSNT ALQDS
K4A9 
36nm S 
202315Z AUTO 03005KT 10SM VCTS BKN028 BKN038 BKN060 26/23 A3001 RMK AO2 LTG DSNT SE AND NW T02580228
KTHA 
38nm NW 
202315Z AUTO 23005KT 10SM FEW041 FEW055 SCT070 24/23 A3000 RMK A01
TAF
KCHA 
19nm E 
202217Z 2022/2118 18003KT P6SM SCT030 BKN250 FM211700 21005KT P6SM BKN070 PROB30 2117/2118 4SM TSRA OVC025CB
NOTAMs
Click for the latest NOTAMs
NOTAMs are issued by the DoD/FAA and will open in a separate window not controlled by AirNav.

 

 
 

FBO, Fuel Providers, and Aircraft Ground Support

  
 Business Name 
 
 Contact 
 
 Services / Description 
 
Fuel Prices
 
Comments
  
Marion County Airport 423-942-5234
no information available

If you are affiliated with Marion County Airport and would like to show here your services, contact info, web link, logo, and more, click here
100LL Jet A Mogas
SS $4.39 $3.99 $3.25 
 Updated 17-Jul-2019
 
   1 read write
SS=Self service
Update Fuel Prices
 

Would you like to see your business listed on this page?

 If your business provides an interesting product or service to pilots, flight crews, aircraft, or users of the Marion County Airport-Brown Field, you should consider listing it here.  To start the listing process, click on the button below
 
Add a business
 

Other Pages about Marion County Airport-Brown Field

Update a link
 
Copyright © AirNav, LLC. All rights reserved. Privacy Policy  Contact